createdAt,value
2022-11-23T00:01:18.476Z,4.40
2022-11-23T00:03:47.405Z,4.50
2022-11-23T00:06:16.123Z,4.50
2022-11-23T00:08:44.839Z,4.60
2022-11-23T00:11:13.096Z,4.50
2022-11-23T00:13:41.739Z,4.50
2022-11-23T00:16:14.823Z,4.40
2022-11-23T00:18:43.156Z,4.30
2022-11-23T00:21:13.436Z,4.30
2022-11-23T00:23:41.473Z,4.40
2022-11-23T00:26:09.864Z,4.40
2022-11-23T00:28:40.529Z,4.40
2022-11-23T00:31:09.173Z,4.30
2022-11-23T00:33:38.759Z,4.20
2022-11-23T00:36:08.753Z,4.30
2022-11-23T00:38:36.912Z,4.30
2022-11-23T00:41:07.257Z,4.30
2022-11-23T00:43:35.953Z,4.40
2022-11-23T00:46:06.242Z,4.50
2022-11-23T00:48:34.613Z,4.60
2022-11-23T00:51:04.679Z,4.70
2022-11-23T00:53:32.680Z,4.80
2022-11-23T00:56:00.739Z,4.90
2022-11-23T00:58:29.294Z,4.80
2022-11-23T01:01:06.456Z,4.80
2022-11-23T01:03:34.542Z,4.80
2022-11-23T01:06:11.606Z,4.80
2022-11-23T01:08:40.854Z,4.80
2022-11-23T01:11:10.659Z,4.90
2022-11-23T01:13:39.609Z,4.90
2022-11-23T01:16:10.842Z,4.90
2022-11-23T01:18:38.831Z,4.90
2022-11-23T01:21:06.976Z,4.80
2022-11-23T01:23:36.799Z,4.70
2022-11-23T01:26:08.833Z,4.60
2022-11-23T01:28:37.679Z,4.60
2022-11-23T01:31:08.247Z,4.60
2022-11-23T01:33:36.523Z,4.50
2022-11-23T01:36:11.156Z,4.40
2022-11-23T01:38:40.940Z,4.40
2022-11-23T01:41:10.256Z,4.40
2022-11-23T01:43:38.256Z,4.40
2022-11-23T01:46:07.304Z,4.50
2022-11-23T01:48:40.264Z,4.50
2022-11-23T01:51:12.451Z,4.50
2022-11-23T01:53:42.392Z,4.40
2022-11-23T01:56:15.305Z,4.40
2022-11-23T01:58:48.790Z,4.40
2022-11-23T02:01:16.841Z,4.40
2022-11-23T02:03:47.135Z,4.30
2022-11-23T02:06:17.647Z,4.20
2022-11-23T02:08:50.734Z,4.30
2022-11-23T02:11:19.040Z,4.30
2022-11-23T02:13:49.457Z,4.30
2022-11-23T02:16:18.620Z,4.30
2022-11-23T02:18:49.624Z,4.40
2022-11-23T02:21:17.918Z,4.30
2022-11-23T02:23:56.595Z,4.30
2022-11-23T02:26:28.115Z,4.20
2022-11-23T02:28:59.333Z,4.20
2022-11-23T02:31:27.519Z,4.30
2022-11-23T02:33:55.466Z,4.30
2022-11-23T02:36:40.512Z,4.20
2022-11-23T02:39:11.726Z,4.20
2022-11-23T02:41:43.505Z,4.20
2022-11-23T02:44:21.998Z,4.20
2022-11-23T02:46:50.135Z,4.30
2022-11-23T02:49:18.156Z,4.30
2022-11-23T02:51:46.290Z,4.30
2022-11-23T02:54:14.455Z,4.30
2022-11-23T02:56:43.866Z,4.30
2022-11-23T02:59:11.887Z,4.20
2022-11-23T03:01:40.214Z,4.20
2022-11-23T03:04:08.448Z,4.20
2022-11-23T03:06:36.482Z,4.20
2022-11-23T03:09:05.808Z,4.20
2022-11-23T03:11:34.498Z,4.20
2022-11-23T03:14:04.175Z,4.10
2022-11-23T03:16:33.515Z,4.20
2022-11-23T03:19:01.679Z,4.20
2022-11-23T03:21:29.696Z,4.10
2022-11-23T03:23:58.233Z,4.10
2022-11-23T03:26:26.272Z,4.00
2022-11-23T03:28:54.285Z,4.10
2022-11-23T03:31:23.631Z,4.00
2022-11-23T03:33:51.660Z,4.00
2022-11-23T03:36:19.633Z,4.00
2022-11-23T03:38:47.564Z,4.10
2022-11-23T03:41:15.568Z,4.00
2022-11-23T03:43:43.598Z,4.00
2022-11-23T03:46:11.606Z,4.10
2022-11-23T03:48:40.975Z,4.20
2022-11-23T03:51:08.938Z,4.30
2022-11-23T03:53:36.948Z,4.40
2022-11-23T03:56:05.255Z,4.40
2022-11-23T03:58:33.269Z,4.30
2022-11-23T04:01:01.825Z,4.40
2022-11-23T04:03:29.823Z,4.40
2022-11-23T04:05:59.271Z,4.40
2022-11-23T04:08:27.322Z,4.50
2022-11-23T04:10:57.813Z,4.50
2022-11-23T04:13:25.934Z,4.50
2022-11-23T04:15:53.905Z,4.40
2022-11-23T04:18:21.903Z,4.50
2022-11-23T04:20:49.861Z,4.60
2022-11-23T04:23:19.132Z,4.60
2022-11-23T04:25:47.606Z,4.50
2022-11-23T04:28:15.721Z,4.60
2022-11-23T04:30:43.659Z,4.60
2022-11-23T04:33:11.562Z,4.40
2022-11-23T04:35:39.542Z,4.50
2022-11-23T04:38:07.546Z,4.50
2022-11-23T04:40:36.926Z,4.30
2022-11-23T04:43:06.508Z,4.30
2022-11-23T04:45:34.476Z,4.30
2022-11-23T04:48:02.417Z,4.10
2022-11-23T04:50:30.410Z,4.10
2022-11-23T04:52:58.525Z,4.00
2022-11-23T04:55:26.656Z,3.90
2022-11-23T04:57:56.010Z,3.70
2022-11-23T05:00:24.176Z,3.70
2022-11-23T05:02:52.189Z,3.70
2022-11-23T05:05:20.224Z,3.60
2022-11-23T05:07:48.343Z,3.70
2022-11-23T05:10:16.518Z,3.70
2022-11-23T05:12:44.512Z,3.80
2022-11-23T05:15:15.077Z,3.90
2022-11-23T05:17:43.713Z,3.90
2022-11-23T05:20:12.684Z,4.20
2022-11-23T05:22:40.659Z,4.20
2022-11-23T05:25:09.530Z,4.20
2022-11-23T05:27:37.552Z,4.20
2022-11-23T05:30:06.565Z,4.30
2022-11-23T05:32:37.048Z,4.30
2022-11-23T05:35:06.159Z,4.20
2022-11-23T05:37:34.724Z,4.20
2022-11-23T05:40:03.132Z,4.30
2022-11-23T05:42:31.558Z,4.50
2022-11-23T05:44:59.587Z,4.60
2022-11-23T05:47:28.394Z,4.70
2022-11-23T05:49:57.744Z,4.80
2022-11-23T05:52:26.570Z,4.90
2022-11-23T05:54:54.735Z,5.00
2022-11-23T05:57:23.032Z,5.20
2022-11-23T05:59:51.168Z,5.20
2022-11-23T06:02:19.208Z,5.20
2022-11-23T06:04:47.234Z,5.20
2022-11-23T06:07:16.599Z,5.30
2022-11-23T06:09:44.877Z,5.30
2022-11-23T06:12:12.939Z,5.30
2022-11-23T06:14:41.064Z,5.20
2022-11-23T06:17:09.330Z,5.20
2022-11-23T06:19:37.392Z,5.20
2022-11-23T06:22:05.411Z,5.10
2022-11-23T06:24:34.880Z,5.00
2022-11-23T06:27:02.872Z,5.00
2022-11-23T06:29:31.230Z,5.00
2022-11-23T06:31:59.581Z,4.90
2022-11-23T06:34:27.608Z,4.90
2022-11-23T06:36:55.606Z,4.60
2022-11-23T06:39:23.588Z,4.40
2022-11-23T06:42:02.831Z,4.30
2022-11-23T06:44:42.531Z,4.20
2022-11-23T06:47:15.379Z,4.20
2022-11-23T06:49:44.850Z,4.20
2022-11-23T06:52:13.772Z,4.20
2022-11-23T06:54:41.806Z,4.20
2022-11-23T06:57:11.563Z,4.10
2022-11-23T06:59:43.322Z,4.10
2022-11-23T07:02:13.256Z,4.10
2022-11-23T07:04:41.250Z,4.10
2022-11-23T07:07:09.401Z,4.10
2022-11-23T07:09:38.124Z,4.10
2022-11-23T07:12:06.609Z,4.00
2022-11-23T07:14:36.079Z,4.10
2022-11-23T07:17:04.132Z,4.20
2022-11-23T07:19:32.552Z,4.20
2022-11-23T07:22:00.995Z,4.30
2022-11-23T07:24:31.777Z,4.20
2022-11-23T07:27:04.584Z,4.10
2022-11-23T07:29:32.740Z,4.10
2022-11-23T07:32:02.518Z,4.30
2022-11-23T07:34:30.570Z,4.20
2022-11-23T07:37:01.964Z,4.20
2022-11-23T07:39:55.250Z,4.10
2022-11-23T07:42:32.351Z,4.10
2022-11-23T07:45:02.877Z,4.20
2022-11-23T07:47:33.919Z,4.20
2022-11-23T07:50:01.966Z,4.30
2022-11-23T07:52:30.829Z,4.30
2022-11-23T07:55:00.305Z,4.40
2022-11-23T07:57:28.603Z,4.50
2022-11-23T07:59:56.623Z,4.50
2022-11-23T08:02:24.662Z,4.60
2022-11-23T08:04:54.015Z,4.80
2022-11-23T08:07:22.059Z,4.80
2022-11-23T08:09:50.471Z,4.80
2022-11-23T08:12:18.465Z,4.90
2022-11-23T08:14:46.470Z,5.10
2022-11-23T08:17:14.432Z,5.20
2022-11-23T08:19:42.455Z,5.30
2022-11-23T08:22:15.586Z,5.40
2022-11-23T08:24:44.071Z,5.50
2022-11-23T08:27:12.416Z,5.50
2022-11-23T08:29:40.389Z,5.60
2022-11-23T08:32:08.406Z,5.70
2022-11-23T08:34:36.422Z,5.80
2022-11-23T08:37:04.410Z,5.90
2022-11-23T08:39:33.800Z,5.90
2022-11-23T08:42:01.792Z,6.00
2022-11-23T08:44:30.581Z,6.00
2022-11-23T08:46:58.929Z,6.10
2022-11-23T08:49:26.985Z,6.20
2022-11-23T08:51:55.499Z,6.20
2022-11-23T08:54:24.246Z,6.30
2022-11-23T08:56:53.723Z,6.40
2022-11-23T08:59:21.738Z,6.50
2022-11-23T09:01:49.982Z,6.50
2022-11-23T09:04:32.144Z,6.50
2022-11-23T09:07:00.304Z,6.60
2022-11-23T09:09:28.304Z,6.60
2022-11-23T09:11:57.673Z,6.60
2022-11-23T09:14:27.745Z,6.70
2022-11-23T09:16:55.788Z,6.80
2022-11-23T09:19:23.923Z,6.80
2022-11-23T09:21:51.889Z,6.90
2022-11-23T09:24:19.937Z,7.00
2022-11-23T09:26:47.965Z,7.00
2022-11-23T09:29:17.374Z,7.10
2022-11-23T09:31:45.372Z,7.10
2022-11-23T09:34:14.375Z,7.20
2022-11-23T09:36:42.465Z,7.30
2022-11-23T09:39:10.373Z,7.30
2022-11-23T09:41:58.225Z,7.40
2022-11-23T09:44:36.713Z,7.50
2022-11-23T09:47:22.642Z,7.60
2022-11-23T09:49:59.282Z,7.60
2022-11-23T09:52:27.696Z,7.70
2022-11-23T09:54:59.067Z,7.70
2022-11-23T09:57:30.644Z,7.80
2022-11-23T10:00:05.079Z,7.80
2022-11-23T10:02:38.201Z,7.90
2022-11-23T10:05:07.750Z,7.90
2022-11-23T10:07:47.336Z,8.00
2022-11-23T10:10:30.644Z,8.00
2022-11-23T10:13:08.668Z,8.10
2022-11-23T10:15:46.729Z,8.10
2022-11-23T10:18:31.569Z,8.20
2022-11-23T10:21:20.691Z,8.30
2022-11-23T10:23:55.007Z,8.30
2022-11-23T10:26:30.109Z,8.40
2022-11-23T10:29:03.788Z,8.40
2022-11-23T10:31:33.201Z,8.40
2022-11-23T10:34:09.145Z,8.40
2022-11-23T10:36:37.574Z,8.50
2022-11-23T10:39:17.614Z,8.40
2022-11-23T10:41:46.506Z,8.50
2022-11-23T10:44:27.736Z,8.70
2022-11-23T10:46:57.183Z,8.70
2022-11-23T10:49:27.523Z,8.80
2022-11-23T10:51:58.346Z,8.80
2022-11-23T10:54:30.671Z,8.80
2022-11-23T10:57:00.731Z,8.90
2022-11-23T10:59:32.474Z,8.90
2022-11-23T11:02:04.729Z,8.90
2022-11-23T11:04:33.191Z,8.90
2022-11-23T11:07:28.382Z,9.00
2022-11-23T11:09:58.828Z,9.00
2022-11-23T11:12:28.595Z,9.10
2022-11-23T11:15:11.231Z,9.20
2022-11-23T11:17:42.103Z,9.10
2022-11-23T11:20:32.281Z,9.20
2022-11-23T11:23:02.854Z,9.30
2022-11-23T11:25:34.068Z,9.30
2022-11-23T11:28:05.172Z,9.30
2022-11-23T11:30:44.892Z,9.30
2022-11-23T11:33:21.391Z,9.30
2022-11-23T11:35:53.001Z,9.30
2022-11-23T11:38:29.650Z,9.40
2022-11-23T11:41:01.161Z,9.50
2022-11-23T11:43:39.481Z,9.50
2022-11-23T11:46:28.536Z,9.50
2022-11-23T11:49:05.211Z,9.50
2022-11-23T11:51:37.729Z,9.50
2022-11-23T11:54:18.910Z,9.50
2022-11-23T11:56:50.851Z,9.50
2022-11-23T11:59:26.142Z,9.60
2022-11-23T12:02:01.456Z,9.60
2022-11-23T12:04:40.763Z,9.60
2022-11-23T12:07:15.546Z,9.60
2022-11-23T12:09:47.643Z,9.60
2022-11-23T12:12:18.320Z,9.60
2022-11-23T12:14:47.760Z,9.60
2022-11-23T12:17:37.676Z,9.60
2022-11-23T12:20:15.006Z,9.60
2022-11-23T12:22:56.093Z,9.60
2022-11-23T12:25:33.287Z,9.60
2022-11-23T12:28:24.197Z,9.50
2022-11-23T12:31:02.110Z,9.60
2022-11-23T12:33:45.736Z,9.50
2022-11-23T12:36:31.710Z,9.50
2022-11-23T12:39:09.538Z,9.50
2022-11-23T12:41:46.497Z,9.50
2022-11-23T12:44:42.019Z,9.60
2022-11-23T12:47:16.827Z,9.60
2022-11-23T12:49:52.003Z,9.60
2022-11-23T12:52:35.959Z,9.60
2022-11-23T12:55:19.194Z,9.60
2022-11-23T12:57:53.324Z,9.70
2022-11-23T13:00:22.898Z,9.70
2022-11-23T13:03:30.109Z,9.70
2022-11-23T13:07:05.640Z,9.70
2022-11-23T13:10:05.679Z,9.70
2022-11-23T13:12:44.623Z,9.80
2022-11-23T13:15:26.108Z,9.70
2022-11-23T13:17:59.587Z,9.70
2022-11-23T13:20:50.240Z,9.80
2022-11-23T13:23:23.546Z,9.80
2022-11-23T13:26:17.357Z,9.70
2022-11-23T13:28:47.736Z,9.70
2022-11-23T13:31:28.324Z,9.70
2022-11-23T13:33:58.179Z,9.70
2022-11-23T13:40:08.074Z,9.60
2022-11-23T13:42:36.572Z,9.60
2022-11-23T13:45:33.984Z,9.60
2022-11-23T13:48:41.299Z,9.70
2022-11-23T13:51:05.956Z,9.60
2022-11-23T13:53:36.586Z,9.60
2022-11-23T13:56:27.165Z,9.60
2022-11-23T13:58:57.276Z,9.60
2022-11-23T14:02:24.316Z,9.50
2022-11-23T14:04:52.478Z,9.50
2022-11-23T14:07:24.675Z,9.40
2022-11-23T14:09:56.007Z,9.50
2022-11-23T14:12:37.930Z,9.40
2022-11-23T14:15:13.307Z,9.40
2022-11-23T14:18:15.566Z,9.50
2022-11-23T14:21:13.987Z,9.50
2022-11-23T14:24:14.154Z,9.40
2022-11-23T14:26:53.009Z,9.30
2022-11-23T14:29:50.439Z,9.30
2022-11-23T14:32:35.771Z,9.20
2022-11-23T14:35:20.959Z,9.10
2022-11-23T14:38:04.820Z,9.20
2022-11-23T14:40:48.983Z,9.20
2022-11-23T14:43:20.567Z,9.20
2022-11-23T14:45:49.583Z,9.10
2022-11-23T14:48:27.163Z,9.00
2022-11-23T14:50:58.879Z,8.90
2022-11-23T14:53:30.672Z,8.90
2022-11-23T14:55:59.519Z,8.80
2022-11-23T14:58:30.675Z,8.70
2022-11-23T15:01:01.050Z,8.50
2022-11-23T15:03:49.912Z,8.60
2022-11-23T15:06:25.324Z,8.60
2022-11-23T15:09:01.123Z,8.50
2022-11-23T15:11:31.431Z,8.60
2022-11-23T15:14:03.273Z,8.50
2022-11-23T15:16:39.433Z,8.30
2022-11-23T15:19:19.184Z,8.30
2022-11-23T15:21:49.422Z,8.30
2022-11-23T15:24:24.977Z,8.10
2022-11-23T15:26:53.598Z,7.90
2022-11-23T15:29:33.198Z,7.90
2022-11-23T15:34:51.182Z,7.80
2022-11-23T15:37:20.581Z,7.50
2022-11-23T15:39:49.505Z,7.50
2022-11-23T15:42:20.453Z,7.50
2022-11-23T15:44:51.391Z,7.40
2022-11-23T15:47:26.133Z,7.30
2022-11-23T15:50:00.088Z,7.30
2022-11-23T15:52:34.729Z,7.40
2022-11-23T15:55:09.284Z,7.40
2022-11-23T15:57:40.002Z,7.70
2022-11-23T16:00:10.577Z,7.70
2022-11-23T16:02:38.668Z,7.70
2022-11-23T16:05:13.815Z,7.80
2022-11-23T16:07:54.239Z,7.80
2022-11-23T16:10:26.098Z,7.80
2022-11-23T16:12:55.940Z,8.00
2022-11-23T16:15:44.344Z,8.30
2022-11-23T16:18:25.114Z,8.20
2022-11-23T16:20:56.214Z,8.30
2022-11-23T16:23:28.487Z,8.20
2022-11-23T16:25:59.648Z,8.30
2022-11-23T16:28:32.206Z,8.40
2022-11-23T16:31:01.092Z,8.40
2022-11-23T16:33:30.372Z,8.40
2022-11-23T16:35:58.499Z,8.40
2022-11-23T16:38:28.164Z,8.60
2022-11-23T16:40:56.429Z,8.70
2022-11-23T16:43:24.566Z,8.70
2022-11-23T16:45:52.732Z,8.70
2022-11-23T16:48:39.045Z,8.80
2022-11-23T16:51:10.719Z,8.90
2022-11-23T16:54:11.877Z,8.90
2022-11-23T16:56:31.446Z,8.90
2022-11-23T16:58:59.520Z,8.80
2022-11-23T17:01:29.548Z,8.60
2022-11-23T17:03:57.730Z,8.50
2022-11-23T17:06:25.871Z,8.40
2022-11-23T17:09:00.718Z,8.20
2022-11-23T17:11:35.988Z,8.00
2022-11-23T17:14:05.531Z,8.10
2022-11-23T17:16:34.176Z,8.00
2022-11-23T17:19:02.415Z,7.90
2022-11-23T17:21:30.462Z,7.70
2022-11-23T17:23:59.969Z,7.60
2022-11-23T17:26:32.457Z,7.50
2022-11-23T17:29:03.484Z,7.30
2022-11-23T17:31:32.097Z,7.30
2022-11-23T17:34:00.172Z,7.10
2022-11-23T17:36:28.548Z,7.20
2022-11-23T17:38:56.684Z,7.30
2022-11-23T17:41:26.149Z,7.20
2022-11-23T17:43:54.993Z,7.10
2022-11-23T17:46:24.695Z,7.20
2022-11-23T17:48:56.647Z,7.20
2022-11-23T17:51:25.479Z,7.20
2022-11-23T17:53:53.504Z,7.20
2022-11-23T17:56:24.011Z,7.10
2022-11-23T17:58:53.831Z,7.10
2022-11-23T18:01:24.045Z,7.00
2022-11-23T18:03:52.388Z,7.10
2022-11-23T18:06:23.135Z,7.00
2022-11-23T18:08:52.478Z,6.90
2022-11-23T18:11:22.144Z,6.80
2022-11-23T18:13:51.394Z,6.80
2022-11-23T18:16:21.756Z,6.80
2022-11-23T18:18:53.280Z,6.70
2022-11-23T18:21:21.461Z,6.70
2022-11-23T18:23:49.540Z,6.70
2022-11-23T18:26:20.380Z,6.70
2022-11-23T18:28:48.765Z,6.70
2022-11-23T18:31:21.391Z,6.70
2022-11-23T18:33:49.527Z,6.70
2022-11-23T18:36:17.885Z,6.70
2022-11-23T18:38:46.491Z,6.70
2022-11-23T18:41:16.507Z,6.70
2022-11-23T18:43:45.034Z,6.70
2022-11-23T18:46:19.514Z,6.70
2022-11-23T18:48:50.417Z,6.80
2022-11-23T18:51:19.521Z,6.70
2022-11-23T18:53:49.969Z,6.80
2022-11-23T18:56:19.306Z,6.70
2022-11-23T18:58:47.620Z,6.70
2022-11-23T19:01:17.824Z,6.70
2022-11-23T19:03:49.475Z,6.70
2022-11-23T19:06:19.508Z,6.70
2022-11-23T19:08:50.757Z,6.70
2022-11-23T19:11:20.886Z,6.70
2022-11-23T19:13:51.525Z,6.70
2022-11-23T19:16:22.321Z,6.70
2022-11-23T19:18:56.604Z,6.80
2022-11-23T19:21:26.327Z,6.80
2022-11-23T19:23:56.674Z,6.80
2022-11-23T19:26:25.544Z,6.80
2022-11-23T19:28:55.401Z,6.80
2022-11-23T19:31:25.428Z,6.80
2022-11-23T19:33:57.384Z,6.80
2022-11-23T19:36:26.554Z,6.80
2022-11-23T19:38:57.286Z,6.80
2022-11-23T19:41:30.133Z,6.80
2022-11-23T19:44:00.002Z,6.90
2022-11-23T19:46:28.753Z,6.90
2022-11-23T19:48:58.876Z,6.90
2022-11-23T19:51:28.506Z,6.90
2022-11-23T19:53:57.666Z,7.00
2022-11-23T19:56:28.672Z,7.00
2022-11-23T19:58:58.470Z,7.00
2022-11-23T20:01:28.103Z,7.00
2022-11-23T20:04:04.011Z,7.00
2022-11-23T20:06:37.150Z,7.00
2022-11-23T20:09:07.377Z,7.10
2022-11-23T20:11:36.408Z,7.10
2022-11-23T20:14:04.622Z,7.10
2022-11-23T20:16:33.748Z,7.20
2022-11-23T20:19:04.987Z,7.10
2022-11-23T20:21:34.408Z,7.20
2022-11-23T20:24:05.681Z,7.20
2022-11-23T20:26:36.099Z,7.30
2022-11-23T20:29:06.109Z,7.30
2022-11-23T20:31:35.225Z,7.30
2022-11-23T20:34:07.315Z,7.30
2022-11-23T20:36:38.128Z,7.40
2022-11-23T20:39:07.764Z,7.50
2022-11-23T20:41:37.556Z,7.50
2022-11-23T20:44:07.620Z,7.50
2022-11-23T20:47:00.663Z,7.60
2022-11-23T20:49:25.333Z,7.60
2022-11-23T20:51:53.636Z,7.90
2022-11-23T20:54:21.861Z,8.00
2022-11-23T20:56:49.900Z,8.00
2022-11-23T20:59:19.739Z,8.00
2022-11-23T21:01:48.040Z,8.00
2022-11-23T21:04:16.173Z,8.00
2022-11-23T21:06:45.918Z,7.80
2022-11-23T21:09:14.117Z,7.80
2022-11-23T21:11:59.979Z,7.70
2022-11-23T21:14:30.568Z,7.80
2022-11-23T21:17:02.746Z,7.90
2022-11-23T21:19:32.037Z,8.10
2022-11-23T21:22:05.226Z,8.00
2022-11-23T21:24:35.108Z,8.00
2022-11-23T21:27:04.061Z,8.00
2022-11-23T21:29:35.437Z,8.00
2022-11-23T21:32:07.126Z,7.80
2022-11-23T21:34:35.580Z,7.60
2022-11-23T21:37:05.123Z,7.40
2022-11-23T21:39:33.410Z,7.30
2022-11-23T21:42:01.507Z,7.10
2022-11-23T21:44:30.843Z,7.10
2022-11-23T21:47:00.361Z,7.10
2022-11-23T21:49:28.714Z,6.90
2022-11-23T21:51:56.837Z,6.80
2022-11-23T21:54:26.367Z,6.60
2022-11-23T21:56:54.532Z,6.60
2022-11-23T21:59:23.478Z,6.60
2022-11-23T22:01:51.628Z,6.70
2022-11-23T22:04:19.744Z,6.80
2022-11-23T22:06:48.026Z,6.80
2022-11-23T22:09:16.956Z,6.90
2022-11-23T22:11:46.771Z,7.00
2022-11-23T22:14:17.107Z,7.10
2022-11-23T22:16:47.169Z,6.90
2022-11-23T22:19:16.939Z,6.90
2022-11-23T22:21:46.739Z,7.00
2022-11-23T22:24:16.770Z,6.90
2022-11-23T22:26:47.581Z,6.70
2022-11-23T22:29:15.743Z,6.60
2022-11-23T22:31:44.155Z,6.60
2022-11-23T22:34:13.808Z,6.50
2022-11-23T22:36:42.130Z,6.40
2022-11-23T22:39:10.977Z,6.30
2022-11-23T22:41:39.884Z,6.20
2022-11-23T22:44:10.783Z,6.10
2022-11-23T22:46:39.944Z,6.10
2022-11-23T22:49:08.034Z,6.20
2022-11-23T22:51:36.103Z,6.40
2022-11-23T22:54:04.511Z,6.20
2022-11-23T22:56:33.003Z,6.30
2022-11-23T22:59:00.993Z,6.30
2022-11-23T23:01:31.785Z,6.30
2022-11-23T23:04:02.408Z,6.40
2022-11-23T23:06:33.519Z,6.30
2022-11-23T23:09:03.622Z,6.40
2022-11-23T23:11:32.987Z,6.20
2022-11-23T23:14:01.312Z,6.20
2022-11-23T23:16:30.952Z,5.90
2022-11-23T23:18:59.616Z,5.80
2022-11-23T23:21:29.533Z,5.70
2022-11-23T23:23:59.550Z,5.80
2022-11-23T23:26:28.736Z,5.70
2022-11-23T23:28:57.418Z,5.80
2022-11-23T23:31:26.107Z,5.80
2022-11-23T23:33:55.535Z,5.80
2022-11-23T23:36:25.283Z,6.10
2022-11-23T23:38:53.355Z,6.10
2022-11-23T23:41:21.638Z,6.10
2022-11-23T23:43:49.770Z,5.90
2022-11-23T23:46:18.567Z,5.80
2022-11-23T23:48:46.950Z,5.80
2022-11-23T23:51:17.887Z,5.80
2022-11-23T23:53:47.364Z,5.80
2022-11-23T23:56:19.586Z,5.70
2022-11-23T23:58:48.449Z,5.50
